sensor_id;sensor_type;location;lat;lon;timestamp;P1;durP1;ratioP1;P2;durP2;ratioP2
75044;SDS011;63614;56.026;35.960;2022-12-29T00:02:09;13.18;;;2.75;;
75044;SDS011;63614;56.026;35.960;2022-12-29T00:04:34;7.60;;;2.30;;
75044;SDS011;63614;56.026;35.960;2022-12-29T00:07:00;9.30;;;2.65;;
75044;SDS011;63614;56.026;35.960;2022-12-29T00:09:26;18.13;;;3.33;;
75044;SDS011;63614;56.026;35.960;2022-12-29T00:11:52;17.70;;;3.20;;
75044;SDS011;63614;56.026;35.960;2022-12-29T00:14:19;14.73;;;2.72;;
75044;SDS011;63614;56.026;35.960;2022-12-29T00:17:03;10.40;;;2.83;;
75044;SDS011;63614;56.026;35.960;2022-12-29T00:19:29;15.32;;;2.92;;
75044;SDS011;63614;56.026;35.960;2022-12-29T00:22:13;9.93;;;2.90;;
75044;SDS011;63614;56.026;35.960;2022-12-29T00:24:58;14.50;;;2.75;;
75044;SDS011;63614;56.026;35.960;2022-12-29T00:27:31;11.32;;;2.80;;
75044;SDS011;63614;56.026;35.960;2022-12-29T00:30:17;11.77;;;2.88;;
75044;SDS011;63614;56.026;35.960;2022-12-29T00:33:18;15.27;;;3.08;;
75044;SDS011;63614;56.026;35.960;2022-12-29T00:36:22;7.53;;;2.28;;
75044;SDS011;63614;56.026;35.960;2022-12-29T00:38:59;17.02;;;3.60;;
75044;SDS011;63614;56.026;35.960;2022-12-29T00:41:51;12.68;;;2.90;;
75044;SDS011;63614;56.026;35.960;2022-12-29T00:44:35;14.40;;;2.80;;
75044;SDS011;63614;56.026;35.960;2022-12-29T00:47:01;12.13;;;2.47;;
75044;SDS011;63614;56.026;35.960;2022-12-29T00:49:31;13.32;;;2.95;;
75044;SDS011;63614;56.026;35.960;2022-12-29T00:51:58;14.15;;;3.05;;
75044;SDS011;63614;56.026;35.960;2022-12-29T00:54:24;13.52;;;3.15;;
75044;SDS011;63614;56.026;35.960;2022-12-29T00:56:51;13.73;;;3.35;;
75044;SDS011;63614;56.026;35.960;2022-12-29T00:59:17;12.98;;;3.10;;
75044;SDS011;63614;56.026;35.960;2022-12-29T01:01:44;12.23;;;2.70;;
75044;SDS011;63614;56.026;35.960;2022-12-29T01:04:11;11.63;;;3.00;;
75044;SDS011;63614;56.026;35.960;2022-12-29T01:06:38;12.95;;;2.70;;
75044;SDS011;63614;56.026;35.960;2022-12-29T01:09:05;12.70;;;2.63;;
75044;SDS011;63614;56.026;35.960;2022-12-29T01:11:49;16.83;;;2.55;;
75044;SDS011;63614;56.026;35.960;2022-12-29T01:14:15;15.57;;;2.53;;
75044;SDS011;63614;56.026;35.960;2022-12-29T01:16:42;7.68;;;2.05;;
75044;SDS011;63614;56.026;35.960;2022-12-29T01:19:08;14.77;;;2.45;;
75044;SDS011;63614;56.026;35.960;2022-12-29T01:21:34;12.70;;;2.45;;
75044;SDS011;63614;56.026;35.960;2022-12-29T01:23:59;9.02;;;2.20;;
75044;SDS011;63614;56.026;35.960;2022-12-29T01:26:25;12.10;;;2.20;;
75044;SDS011;63614;56.026;35.960;2022-12-29T01:28:51;11.80;;;2.40;;
75044;SDS011;63614;56.026;35.960;2022-12-29T01:31:17;12.25;;;2.55;;
75044;SDS011;63614;56.026;35.960;2022-12-29T01:33:43;11.10;;;2.38;;
75044;SDS011;63614;56.026;35.960;2022-12-29T01:36:10;12.82;;;2.13;;
75044;SDS011;63614;56.026;35.960;2022-12-29T01:38:38;12.07;;;2.47;;
75044;SDS011;63614;56.026;35.960;2022-12-29T01:41:04;25.25;;;2.92;;
75044;SDS011;63614;56.026;35.960;2022-12-29T01:46:39;11.88;;;2.28;;
75044;SDS011;63614;56.026;35.960;2022-12-29T01:49:16;10.20;;;2.63;;
75044;SDS011;63614;56.026;35.960;2022-12-29T01:51:47;9.13;;;2.38;;
75044;SDS011;63614;56.026;35.960;2022-12-29T01:54:29;15.20;;;2.83;;
75044;SDS011;63614;56.026;35.960;2022-12-29T01:57:01;13.00;;;2.25;;
75044;SDS011;63614;56.026;35.960;2022-12-29T01:59:31;10.50;;;2.55;;
75044;SDS011;63614;56.026;35.960;2022-12-29T02:02:01;12.45;;;2.60;;
75044;SDS011;63614;56.026;35.960;2022-12-29T02:04:27;12.52;;;2.75;;
75044;SDS011;63614;56.026;35.960;2022-12-29T02:06:58;12.80;;;2.63;;
75044;SDS011;63614;56.026;35.960;2022-12-29T02:09:27;17.63;;;3.05;;
75044;SDS011;63614;56.026;35.960;2022-12-29T02:11:54;15.80;;;2.60;;
75044;SDS011;63614;56.026;35.960;2022-12-29T02:14:20;10.30;;;2.70;;
75044;SDS011;63614;56.026;35.960;2022-12-29T02:24:54;7.97;;;2.15;;
75044;SDS011;63614;56.026;35.960;2022-12-29T02:27:31;10.07;;;2.40;;
75044;SDS011;63614;56.026;35.960;2022-12-29T02:33:29;10.45;;;2.05;;
75044;SDS011;63614;56.026;35.960;2022-12-29T02:36:05;9.90;;;2.38;;
75044;SDS011;63614;56.026;35.960;2022-12-29T02:41:38;10.10;;;2.08;;
75044;SDS011;63614;56.026;35.960;2022-12-29T02:44:12;9.10;;;2.05;;
75044;SDS011;63614;56.026;35.960;2022-12-29T02:46:51;10.75;;;2.28;;
75044;SDS011;63614;56.026;35.960;2022-12-29T02:49:33;10.90;;;2.28;;
75044;SDS011;63614;56.026;35.960;2022-12-29T02:54:33;9.85;;;2.13;;
75044;SDS011;63614;56.026;35.960;2022-12-29T03:00:10;8.25;;;2.65;;
75044;SDS011;63614;56.026;35.960;2022-12-29T03:16:37;10.88;;;2.40;;
75044;SDS011;63614;56.026;35.960;2022-12-29T03:19:14;13.00;;;2.63;;
75044;SDS011;63614;56.026;35.960;2022-12-29T03:21:46;15.00;;;2.97;;
75044;SDS011;63614;56.026;35.960;2022-12-29T03:24:40;9.18;;;2.55;;
75044;SDS011;63614;56.026;35.960;2022-12-29T03:27:10;12.05;;;2.78;;
75044;SDS011;63614;56.026;35.960;2022-12-29T03:29:45;8.13;;;2.92;;
75044;SDS011;63614;56.026;35.960;2022-12-29T03:32:18;12.50;;;3.88;;
75044;SDS011;63614;56.026;35.960;2022-12-29T03:34:48;16.98;;;2.75;;
75044;SDS011;63614;56.026;35.960;2022-12-29T03:37:16;15.93;;;5.40;;
75044;SDS011;63614;56.026;35.960;2022-12-29T03:39:46;12.00;;;3.30;;
75044;SDS011;63614;56.026;35.960;2022-12-29T03:42:13;8.52;;;2.90;;
75044;SDS011;63614;56.026;35.960;2022-12-29T03:44:43;8.35;;;2.60;;
75044;SDS011;63614;56.026;35.960;2022-12-29T03:47:12;14.00;;;2.70;;
75044;SDS011;63614;56.026;35.960;2022-12-29T03:49:39;10.63;;;2.75;;
75044;SDS011;63614;56.026;35.960;2022-12-29T03:52:07;15.77;;;2.50;;
75044;SDS011;63614;56.026;35.960;2022-12-29T03:54:41;11.68;;;2.58;;
75044;SDS011;63614;56.026;35.960;2022-12-29T03:57:07;12.07;;;2.97;;
75044;SDS011;63614;56.026;35.960;2022-12-29T03:59:44;13.15;;;2.30;;
75044;SDS011;63614;56.026;35.960;2022-12-29T04:02:11;7.65;;;2.20;;
75044;SDS011;63614;56.026;35.960;2022-12-29T04:04:37;9.77;;;2.47;;
75044;SDS011;63614;56.026;35.960;2022-12-29T04:07:02;8.98;;;2.40;;
75044;SDS011;63614;56.026;35.960;2022-12-29T04:09:29;12.45;;;2.67;;
75044;SDS011;63614;56.026;35.960;2022-12-29T04:11:57;8.57;;;2.15;;
75044;SDS011;63614;56.026;35.960;2022-12-29T04:14:23;9.13;;;2.80;;
75044;SDS011;63614;56.026;35.960;2022-12-29T04:19:16;8.75;;;2.40;;
75044;SDS011;63614;56.026;35.960;2022-12-29T04:21:42;12.20;;;2.88;;
75044;SDS011;63614;56.026;35.960;2022-12-29T04:24:08;14.90;;;2.55;;
75044;SDS011;63614;56.026;35.960;2022-12-29T04:26:38;20.02;;;2.72;;
75044;SDS011;63614;56.026;35.960;2022-12-29T04:29:23;8.48;;;2.75;;
75044;SDS011;63614;56.026;35.960;2022-12-29T04:32:11;13.30;;;2.70;;
75044;SDS011;63614;56.026;35.960;2022-12-29T04:34:43;31.42;;;3.33;;
75044;SDS011;63614;56.026;35.960;2022-12-29T04:37:09;12.90;;;2.65;;
75044;SDS011;63614;56.026;35.960;2022-12-29T04:39:35;10.50;;;2.72;;
75044;SDS011;63614;56.026;35.960;2022-12-29T04:42:03;11.93;;;3.30;;
75044;SDS011;63614;56.026;35.960;2022-12-29T04:44:29;9.55;;;2.75;;
75044;SDS011;63614;56.026;35.960;2022-12-29T04:47:10;10.32;;;2.75;;
75044;SDS011;63614;56.026;35.960;2022-12-29T04:49:46;12.13;;;2.80;;
75044;SDS011;63614;56.026;35.960;2022-12-29T04:52:28;15.65;;;3.03;;
75044;SDS011;63614;56.026;35.960;2022-12-29T04:54:55;13.40;;;3.00;;
75044;SDS011;63614;56.026;35.960;2022-12-29T04:57:22;12.85;;;2.63;;
75044;SDS011;63614;56.026;35.960;2022-12-29T04:59:52;18.67;;;3.10;;
75044;SDS011;63614;56.026;35.960;2022-12-29T05:02:18;18.27;;;2.63;;
75044;SDS011;63614;56.026;35.960;2022-12-29T05:04:47;9.85;;;2.33;;
75044;SDS011;63614;56.026;35.960;2022-12-29T05:07:14;9.57;;;2.65;;
75044;SDS011;63614;56.026;35.960;2022-12-29T05:09:41;20.58;;;3.33;;
75044;SDS011;63614;56.026;35.960;2022-12-29T05:12:07;16.25;;;3.28;;
75044;SDS011;63614;56.026;35.960;2022-12-29T05:14:37;14.02;;;3.10;;
75044;SDS011;63614;56.026;35.960;2022-12-29T05:17:03;21.85;;;3.85;;
75044;SDS011;63614;56.026;35.960;2022-12-29T05:19:29;18.42;;;3.60;;
75044;SDS011;63614;56.026;35.960;2022-12-29T05:21:55;11.77;;;3.50;;
75044;SDS011;63614;56.026;35.960;2022-12-29T05:24:21;16.15;;;4.15;;
75044;SDS011;63614;56.026;35.960;2022-12-29T05:26:47;16.10;;;3.47;;
75044;SDS011;63614;56.026;35.960;2022-12-29T05:29:31;13.70;;;3.53;;
75044;SDS011;63614;56.026;35.960;2022-12-29T05:31:57;9.75;;;3.47;;
75044;SDS011;63614;56.026;35.960;2022-12-29T05:34:23;15.48;;;3.45;;
75044;SDS011;63614;56.026;35.960;2022-12-29T05:36:49;18.13;;;3.60;;
75044;SDS011;63614;56.026;35.960;2022-12-29T05:39:16;9.98;;;2.72;;
75044;SDS011;63614;56.026;35.960;2022-12-29T05:41:45;16.20;;;2.65;;
75044;SDS011;63614;56.026;35.960;2022-12-29T05:44:25;16.33;;;3.10;;
75044;SDS011;63614;56.026;35.960;2022-12-29T05:47:23;19.63;;;3.33;;
75044;SDS011;63614;56.026;35.960;2022-12-29T05:50:02;11.82;;;2.85;;
75044;SDS011;63614;56.026;35.960;2022-12-29T05:52:48;5.43;;;2.22;;
75044;SDS011;63614;56.026;35.960;2022-12-29T05:55:14;8.57;;;2.55;;
75044;SDS011;63614;56.026;35.960;2022-12-29T05:57:41;11.10;;;3.40;;
75044;SDS011;63614;56.026;35.960;2022-12-29T06:00:10;7.35;;;2.58;;
75044;SDS011;63614;56.026;35.960;2022-12-29T06:02:45;6.93;;;1.83;;
75044;SDS011;63614;56.026;35.960;2022-12-29T06:05:11;8.35;;;1.95;;
75044;SDS011;63614;56.026;35.960;2022-12-29T06:07:38;5.97;;;2.20;;
75044;SDS011;63614;56.026;35.960;2022-12-29T06:10:05;3.50;;;1.50;;
75044;SDS011;63614;56.026;35.960;2022-12-29T06:12:39;6.95;;;1.80;;
75044;SDS011;63614;56.026;35.960;2022-12-29T06:15:05;8.52;;;2.25;;
75044;SDS011;63614;56.026;35.960;2022-12-29T06:17:33;4.28;;;1.48;;
75044;SDS011;63614;56.026;35.960;2022-12-29T06:19:59;3.65;;;1.40;;
75044;SDS011;63614;56.026;35.960;2022-12-29T06:22:25;5.78;;;1.60;;
75044;SDS011;63614;56.026;35.960;2022-12-29T06:24:52;6.47;;;1.73;;
75044;SDS011;63614;56.026;35.960;2022-12-29T06:27:18;8.05;;;2.47;;
75044;SDS011;63614;56.026;35.960;2022-12-29T06:29:44;8.85;;;2.05;;
75044;SDS011;63614;56.026;35.960;2022-12-29T06:32:09;9.75;;;1.83;;
75044;SDS011;63614;56.026;35.960;2022-12-29T06:34:40;7.68;;;1.90;;
75044;SDS011;63614;56.026;35.960;2022-12-29T06:37:06;15.88;;;6.25;;
75044;SDS011;63614;56.026;35.960;2022-12-29T06:39:31;10.10;;;2.60;;
75044;SDS011;63614;56.026;35.960;2022-12-29T06:42:04;8.77;;;2.47;;
75044;SDS011;63614;56.026;35.960;2022-12-29T06:44:48;6.57;;;2.28;;
75044;SDS011;63614;56.026;35.960;2022-12-29T06:47:13;10.55;;;2.45;;
75044;SDS011;63614;56.026;35.960;2022-12-29T06:49:39;7.03;;;2.30;;
75044;SDS011;63614;56.026;35.960;2022-12-29T06:52:05;9.25;;;2.28;;
75044;SDS011;63614;56.026;35.960;2022-12-29T06:54:31;13.98;;;2.17;;
75044;SDS011;63614;56.026;35.960;2022-12-29T06:56:56;8.65;;;2.30;;
75044;SDS011;63614;56.026;35.960;2022-12-29T06:59:23;10.00;;;2.60;;
75044;SDS011;63614;56.026;35.960;2022-12-29T07:01:49;8.90;;;2.50;;
75044;SDS011;63614;56.026;35.960;2022-12-29T07:04:15;6.60;;;2.50;;
75044;SDS011;63614;56.026;35.960;2022-12-29T07:06:41;15.13;;;2.55;;
75044;SDS011;63614;56.026;35.960;2022-12-29T07:09:07;9.85;;;2.30;;
75044;SDS011;63614;56.026;35.960;2022-12-29T07:11:35;10.00;;;2.95;;
75044;SDS011;63614;56.026;35.960;2022-12-29T07:14:01;10.10;;;2.50;;
75044;SDS011;63614;56.026;35.960;2022-12-29T07:16:28;9.20;;;2.40;;
75044;SDS011;63614;56.026;35.960;2022-12-29T07:18:55;6.70;;;2.13;;
75044;SDS011;63614;56.026;35.960;2022-12-29T07:21:22;7.30;;;2.65;;
75044;SDS011;63614;56.026;35.960;2022-12-29T07:23:47;8.07;;;2.72;;
75044;SDS011;63614;56.026;35.960;2022-12-29T07:26:14;9.48;;;2.50;;
75044;SDS011;63614;56.026;35.960;2022-12-29T07:28:43;14.90;;;2.80;;
75044;SDS011;63614;56.026;35.960;2022-12-29T07:31:12;10.50;;;2.70;;
75044;SDS011;63614;56.026;35.960;2022-12-29T07:33:40;10.85;;;3.13;;
75044;SDS011;63614;56.026;35.960;2022-12-29T07:36:06;11.02;;;3.00;;
75044;SDS011;63614;56.026;35.960;2022-12-29T07:38:32;16.73;;;3.42;;
75044;SDS011;63614;56.026;35.960;2022-12-29T07:40:58;13.68;;;3.50;;
75044;SDS011;63614;56.026;35.960;2022-12-29T07:43:24;10.02;;;3.50;;
75044;SDS011;63614;56.026;35.960;2022-12-29T07:46:12;16.40;;;3.43;;
75044;SDS011;63614;56.026;35.960;2022-12-29T07:48:38;8.80;;;3.45;;
75044;SDS011;63614;56.026;35.960;2022-12-29T07:51:04;13.80;;;3.45;;
75044;SDS011;63614;56.026;35.960;2022-12-29T07:53:29;11.43;;;3.83;;
75044;SDS011;63614;56.026;35.960;2022-12-29T07:55:56;14.90;;;4.25;;
75044;SDS011;63614;56.026;35.960;2022-12-29T07:58:21;10.93;;;4.30;;
75044;SDS011;63614;56.026;35.960;2022-12-29T08:00:47;9.95;;;3.47;;
75044;SDS011;63614;56.026;35.960;2022-12-29T08:03:13;16.27;;;5.00;;
75044;SDS011;63614;56.026;35.960;2022-12-29T08:05:39;14.40;;;5.43;;
75044;SDS011;63614;56.026;35.960;2022-12-29T08:08:04;18.27;;;5.95;;
75044;SDS011;63614;56.026;35.960;2022-12-29T08:10:30;13.23;;;5.72;;
75044;SDS011;63614;56.026;35.960;2022-12-29T08:12:56;18.75;;;5.28;;
75044;SDS011;63614;56.026;35.960;2022-12-29T08:15:22;15.23;;;6.25;;
75044;SDS011;63614;56.026;35.960;2022-12-29T08:17:48;18.10;;;6.68;;
75044;SDS011;63614;56.026;35.960;2022-12-29T08:20:14;18.00;;;7.22;;
75044;SDS011;63614;56.026;35.960;2022-12-29T08:22:40;16.80;;;7.22;;
75044;SDS011;63614;56.026;35.960;2022-12-29T08:25:06;17.55;;;7.10;;
75044;SDS011;63614;56.026;35.960;2022-12-29T08:27:32;23.23;;;6.75;;
75044;SDS011;63614;56.026;35.960;2022-12-29T08:29:57;12.45;;;5.18;;
75044;SDS011;63614;56.026;35.960;2022-12-29T08:32:26;16.58;;;5.63;;
75044;SDS011;63614;56.026;35.960;2022-12-29T08:34:53;13.13;;;4.32;;
75044;SDS011;63614;56.026;35.960;2022-12-29T08:37:19;12.98;;;4.35;;
75044;SDS011;63614;56.026;35.960;2022-12-29T08:39:45;16.55;;;4.80;;
75044;SDS011;63614;56.026;35.960;2022-12-29T08:42:11;17.67;;;5.25;;
75044;SDS011;63614;56.026;35.960;2022-12-29T08:44:36;12.48;;;4.70;;
75044;SDS011;63614;56.026;35.960;2022-12-29T08:47:02;14.90;;;5.05;;
75044;SDS011;63614;56.026;35.960;2022-12-29T08:49:28;11.50;;;4.50;;
75044;SDS011;63614;56.026;35.960;2022-12-29T08:51:55;12.38;;;6.03;;
75044;SDS011;63614;56.026;35.960;2022-12-29T08:54:20;18.25;;;6.75;;
75044;SDS011;63614;56.026;35.960;2022-12-29T08:56:46;19.00;;;8.55;;
75044;SDS011;63614;56.026;35.960;2022-12-29T08:59:14;31.85;;;13.13;;
75044;SDS011;63614;56.026;35.960;2022-12-29T09:01:41;38.80;;;14.25;;
75044;SDS011;63614;56.026;35.960;2022-12-29T09:04:07;38.75;;;13.38;;
75044;SDS011;63614;56.026;35.960;2022-12-29T09:06:33;32.83;;;13.20;;
75044;SDS011;63614;56.026;35.960;2022-12-29T09:08:59;27.70;;;11.77;;
75044;SDS011;63614;56.026;35.960;2022-12-29T09:11:25;24.95;;;11.18;;
75044;SDS011;63614;56.026;35.960;2022-12-29T09:13:51;24.73;;;9.57;;
75044;SDS011;63614;56.026;35.960;2022-12-29T09:18:45;26.75;;;8.27;;
75044;SDS011;63614;56.026;35.960;2022-12-29T09:21:11;20.38;;;7.38;;
75044;SDS011;63614;56.026;35.960;2022-12-29T09:23:38;25.15;;;6.78;;
75044;SDS011;63614;56.026;35.960;2022-12-29T09:26:04;14.20;;;4.57;;
75044;SDS011;63614;56.026;35.960;2022-12-29T09:28:31;11.18;;;3.95;;
75044;SDS011;63614;56.026;35.960;2022-12-29T09:30:57;13.68;;;3.75;;
75044;SDS011;63614;56.026;35.960;2022-12-29T09:33:23;11.35;;;3.20;;
75044;SDS011;63614;56.026;35.960;2022-12-29T09:35:50;11.38;;;3.45;;
75044;SDS011;63614;56.026;35.960;2022-12-29T09:38:21;11.05;;;2.47;;
75044;SDS011;63614;56.026;35.960;2022-12-29T09:40:55;10.18;;;2.80;;
75044;SDS011;63614;56.026;35.960;2022-12-29T09:48:46;7.10;;;2.80;;
75044;SDS011;63614;56.026;35.960;2022-12-29T09:51:17;10.48;;;3.00;;
75044;SDS011;63614;56.026;35.960;2022-12-29T09:53:51;10.27;;;2.58;;
75044;SDS011;63614;56.026;35.960;2022-12-29T09:56:21;8.43;;;2.88;;
75044;SDS011;63614;56.026;35.960;2022-12-29T10:01:27;7.55;;;2.40;;
75044;SDS011;63614;56.026;35.960;2022-12-29T10:03:57;8.68;;;2.70;;
75044;SDS011;63614;56.026;35.960;2022-12-29T10:09:22;10.95;;;3.35;;
75044;SDS011;63614;56.026;35.960;2022-12-29T10:16:09;7.70;;;2.55;;
75044;SDS011;63614;56.026;35.960;2022-12-29T10:25:55;10.43;;;3.03;;
75044;SDS011;63614;56.026;35.960;2022-12-29T10:31:17;10.13;;;3.20;;
75044;SDS011;63614;56.026;35.960;2022-12-29T10:33:48;10.48;;;2.90;;
75044;SDS011;63614;56.026;35.960;2022-12-29T10:36:37;12.55;;;3.42;;
75044;SDS011;63614;56.026;35.960;2022-12-29T10:44:51;9.43;;;2.92;;
75044;SDS011;63614;56.026;35.960;2022-12-29T10:47:20;9.95;;;2.85;;
75044;SDS011;63614;56.026;35.960;2022-12-29T10:49:49;13.30;;;2.97;;
75044;SDS011;63614;56.026;35.960;2022-12-29T10:52:17;12.43;;;2.72;;
75044;SDS011;63614;56.026;35.960;2022-12-29T10:54:47;10.63;;;3.38;;
75044;SDS011;63614;56.026;35.960;2022-12-29T10:57:27;17.90;;;3.88;;
75044;SDS011;63614;56.026;35.960;2022-12-29T10:59:54;13.90;;;4.00;;
75044;SDS011;63614;56.026;35.960;2022-12-29T11:07:49;15.65;;;5.00;;
75044;SDS011;63614;56.026;35.960;2022-12-29T11:12:58;21.10;;;5.97;;
75044;SDS011;63614;56.026;35.960;2022-12-29T11:15:24;23.20;;;5.68;;
75044;SDS011;63614;56.026;35.960;2022-12-29T11:17:56;22.98;;;6.00;;
75044;SDS011;63614;56.026;35.960;2022-12-29T11:22:55;29.98;;;6.72;;
75044;SDS011;63614;56.026;35.960;2022-12-29T11:25:21;17.45;;;6.30;;
75044;SDS011;63614;56.026;35.960;2022-12-29T11:30:27;18.83;;;6.63;;
75044;SDS011;63614;56.026;35.960;2022-12-29T11:32:56;25.55;;;5.97;;
75044;SDS011;63614;56.026;35.960;2022-12-29T11:35:29;19.93;;;5.50;;
75044;SDS011;63614;56.026;35.960;2022-12-29T11:37:56;20.23;;;5.72;;
75044;SDS011;63614;56.026;35.960;2022-12-29T11:40:23;19.58;;;5.45;;
75044;SDS011;63614;56.026;35.960;2022-12-29T11:45:22;19.13;;;5.72;;
75044;SDS011;63614;56.026;35.960;2022-12-29T11:48:01;22.85;;;6.22;;
75044;SDS011;63614;56.026;35.960;2022-12-29T11:50:34;20.75;;;6.28;;
75044;SDS011;63614;56.026;35.960;2022-12-29T11:53:15;18.75;;;6.72;;
75044;SDS011;63614;56.026;35.960;2022-12-29T11:55:56;25.25;;;7.10;;
75044;SDS011;63614;56.026;35.960;2022-12-29T11:58:28;21.20;;;7.30;;
75044;SDS011;63614;56.026;35.960;2022-12-29T12:01:05;28.35;;;6.75;;
75044;SDS011;63614;56.026;35.960;2022-12-29T12:03:41;20.35;;;6.78;;
75044;SDS011;63614;56.026;35.960;2022-12-29T12:06:15;24.75;;;6.95;;
75044;SDS011;63614;56.026;35.960;2022-12-29T12:08:47;23.70;;;6.93;;
75044;SDS011;63614;56.026;35.960;2022-12-29T12:11:22;22.45;;;6.70;;
75044;SDS011;63614;56.026;35.960;2022-12-29T12:13:58;20.98;;;7.03;;
75044;SDS011;63614;56.026;35.960;2022-12-29T12:17:11;23.92;;;7.38;;
75044;SDS011;63614;56.026;35.960;2022-12-29T12:19:50;22.25;;;7.43;;
75044;SDS011;63614;56.026;35.960;2022-12-29T12:22:31;26.13;;;7.55;;
75044;SDS011;63614;56.026;35.960;2022-12-29T12:25:02;23.98;;;7.80;;
75044;SDS011;63614;56.026;35.960;2022-12-29T12:30:50;21.63;;;7.57;;
75044;SDS011;63614;56.026;35.960;2022-12-29T12:52:30;28.20;;;8.90;;
75044;SDS011;63614;56.026;35.960;2022-12-29T13:00:50;24.52;;;9.23;;
75044;SDS011;63614;56.026;35.960;2022-12-29T13:06:21;27.30;;;9.60;;
75044;SDS011;63614;56.026;35.960;2022-12-29T13:23:00;32.72;;;12.23;;
75044;SDS011;63614;56.026;35.960;2022-12-29T13:36:57;36.30;;;11.93;;
75044;SDS011;63614;56.026;35.960;2022-12-29T13:42:03;41.30;;;15.50;;
75044;SDS011;63614;56.026;35.960;2022-12-29T13:44:42;40.15;;;14.65;;
75044;SDS011;63614;56.026;35.960;2022-12-29T13:50:00;46.13;;;15.07;;
75044;SDS011;63614;56.026;35.960;2022-12-29T13:52:32;48.08;;;14.52;;
75044;SDS011;63614;56.026;35.960;2022-12-29T13:58:24;38.58;;;14.18;;
75044;SDS011;63614;56.026;35.960;2022-12-29T14:01:04;40.08;;;14.40;;
75044;SDS011;63614;56.026;35.960;2022-12-29T14:04:08;47.38;;;15.40;;
75044;SDS011;63614;56.026;35.960;2022-12-29T14:06:32;35.25;;;14.10;;
75044;SDS011;63614;56.026;35.960;2022-12-29T14:09:06;42.87;;;14.93;;
75044;SDS011;63614;56.026;35.960;2022-12-29T14:11:52;44.75;;;14.57;;
75044;SDS011;63614;56.026;35.960;2022-12-29T14:14:20;40.03;;;14.63;;
75044;SDS011;63614;56.026;35.960;2022-12-29T14:16:49;40.42;;;14.40;;
75044;SDS011;63614;56.026;35.960;2022-12-29T14:19:16;43.90;;;14.65;;
75044;SDS011;63614;56.026;35.960;2022-12-29T14:21:52;41.03;;;13.98;;
75044;SDS011;63614;56.026;35.960;2022-12-29T14:24:53;36.50;;;13.45;;
75044;SDS011;63614;56.026;35.960;2022-12-29T14:32:35;35.13;;;13.48;;
75044;SDS011;63614;56.026;35.960;2022-12-29T14:34:56;44.95;;;14.13;;
75044;SDS011;63614;56.026;35.960;2022-12-29T14:40:08;33.22;;;13.75;;
75044;SDS011;63614;56.026;35.960;2022-12-29T14:42:40;35.28;;;14.15;;
75044;SDS011;63614;56.026;35.960;2022-12-29T14:47:42;41.33;;;14.38;;
75044;SDS011;63614;56.026;35.960;2022-12-29T14:50:22;42.13;;;14.35;;
75044;SDS011;63614;56.026;35.960;2022-12-29T14:52:51;38.40;;;14.88;;
75044;SDS011;63614;56.026;35.960;2022-12-29T14:58:04;41.92;;;15.27;;
75044;SDS011;63614;56.026;35.960;2022-12-29T15:00:33;42.72;;;15.13;;
75044;SDS011;63614;56.026;35.960;2022-12-29T15:03:05;39.90;;;15.57;;
75044;SDS011;63614;56.026;35.960;2022-12-29T15:05:48;44.15;;;15.65;;
75044;SDS011;63614;56.026;35.960;2022-12-29T15:08:18;46.72;;;15.70;;
75044;SDS011;63614;56.026;35.960;2022-12-29T15:10:48;37.42;;;14.50;;
75044;SDS011;63614;56.026;35.960;2022-12-29T15:13:23;36.95;;;14.93;;
75044;SDS011;63614;56.026;35.960;2022-12-29T15:15:57;43.92;;;16.02;;
75044;SDS011;63614;56.026;35.960;2022-12-29T15:18:25;39.28;;;15.40;;
75044;SDS011;63614;56.026;35.960;2022-12-29T15:20:57;40.83;;;15.70;;
75044;SDS011;63614;56.026;35.960;2022-12-29T15:23:29;46.33;;;15.75;;
75044;SDS011;63614;56.026;35.960;2022-12-29T15:25:58;44.03;;;14.93;;
75044;SDS011;63614;56.026;35.960;2022-12-29T15:28:26;50.38;;;16.17;;
75044;SDS011;63614;56.026;35.960;2022-12-29T15:31:12;44.53;;;17.63;;
75044;SDS011;63614;56.026;35.960;2022-12-29T15:33:42;60.72;;;16.88;;
75044;SDS011;63614;56.026;35.960;2022-12-29T15:36:11;48.90;;;17.13;;
75044;SDS011;63614;56.026;35.960;2022-12-29T15:38:39;43.38;;;15.25;;
75044;SDS011;63614;56.026;35.960;2022-12-29T15:41:06;37.13;;;15.43;;
75044;SDS011;63614;56.026;35.960;2022-12-29T15:44:17;54.28;;;14.80;;
75044;SDS011;63614;56.026;35.960;2022-12-29T15:46:50;49.63;;;16.45;;
75044;SDS011;63614;56.026;35.960;2022-12-29T15:49:17;56.05;;;15.77;;
75044;SDS011;63614;56.026;35.960;2022-12-29T15:51:43;46.08;;;16.15;;
75044;SDS011;63614;56.026;35.960;2022-12-29T15:54:17;51.08;;;15.52;;
75044;SDS011;63614;56.026;35.960;2022-12-29T15:56:45;44.95;;;15.77;;
75044;SDS011;63614;56.026;35.960;2022-12-29T16:02:10;37.93;;;14.87;;
75044;SDS011;63614;56.026;35.960;2022-12-29T16:04:36;25.85;;;11.75;;
75044;SDS011;63614;56.026;35.960;2022-12-29T16:07:04;27.02;;;10.98;;
75044;SDS011;63614;56.026;35.960;2022-12-29T16:09:35;25.15;;;11.18;;
75044;SDS011;63614;56.026;35.960;2022-12-29T16:12:07;23.67;;;10.80;;
75044;SDS011;63614;56.026;35.960;2022-12-29T16:14:44;22.77;;;10.98;;
75044;SDS011;63614;56.026;35.960;2022-12-29T16:17:19;20.50;;;10.18;;
75044;SDS011;63614;56.026;35.960;2022-12-29T16:19:49;20.23;;;10.45;;
75044;SDS011;63614;56.026;35.960;2022-12-29T16:22:39;19.17;;;9.82;;
75044;SDS011;63614;56.026;35.960;2022-12-29T16:27:56;18.60;;;9.88;;
75044;SDS011;63614;56.026;35.960;2022-12-29T16:30:26;18.70;;;9.57;;
75044;SDS011;63614;56.026;35.960;2022-12-29T16:32:55;18.98;;;10.52;;
75044;SDS011;63614;56.026;35.960;2022-12-29T16:35:23;23.52;;;10.88;;
75044;SDS011;63614;56.026;35.960;2022-12-29T16:40:58;23.02;;;10.70;;
75044;SDS011;63614;56.026;35.960;2022-12-29T16:43:29;24.50;;;11.07;;
75044;SDS011;63614;56.026;35.960;2022-12-29T16:50:59;22.92;;;11.07;;
75044;SDS011;63614;56.026;35.960;2022-12-29T16:53:50;22.13;;;10.27;;
75044;SDS011;63614;56.026;35.960;2022-12-29T16:56:23;23.70;;;11.25;;
75044;SDS011;63614;56.026;35.960;2022-12-29T16:58:57;24.42;;;10.55;;
75044;SDS011;63614;56.026;35.960;2022-12-29T17:01:30;25.30;;;10.10;;
75044;SDS011;63614;56.026;35.960;2022-12-29T17:04:00;20.77;;;10.77;;
75044;SDS011;63614;56.026;35.960;2022-12-29T17:06:31;23.63;;;11.70;;
75044;SDS011;63614;56.026;35.960;2022-12-29T17:08:57;30.17;;;11.77;;
75044;SDS011;63614;56.026;35.960;2022-12-29T17:11:25;27.02;;;12.02;;
75044;SDS011;63614;56.026;35.960;2022-12-29T17:14:18;29.63;;;11.20;;
75044;SDS011;63614;56.026;35.960;2022-12-29T17:16:49;24.75;;;10.77;;
75044;SDS011;63614;56.026;35.960;2022-12-29T17:19:19;27.70;;;11.73;;
75044;SDS011;63614;56.026;35.960;2022-12-29T17:21:48;31.75;;;11.45;;
75044;SDS011;63614;56.026;35.960;2022-12-29T17:24:16;22.50;;;11.13;;
75044;SDS011;63614;56.026;35.960;2022-12-29T17:26:44;27.67;;;11.05;;
75044;SDS011;63614;56.026;35.960;2022-12-29T17:29:31;27.73;;;11.35;;
75044;SDS011;63614;56.026;35.960;2022-12-29T17:32:00;24.30;;;11.75;;
75044;SDS011;63614;56.026;35.960;2022-12-29T17:34:28;24.95;;;10.48;;
75044;SDS011;63614;56.026;35.960;2022-12-29T17:36:56;26.63;;;10.90;;
75044;SDS011;63614;56.026;35.960;2022-12-29T17:39:25;25.60;;;11.10;;
75044;SDS011;63614;56.026;35.960;2022-12-29T17:41:51;36.30;;;13.07;;
75044;SDS011;63614;56.026;35.960;2022-12-29T17:44:18;25.40;;;10.77;;